Scottish Viking — IBDZ — position and weather

sailwx.info

Track history (hours):
 
Tides and Currents Weather Stations Pressure Air Temp Water Temp Dewpoint Dewpoint Depression Visibility Wind Speed Wind Dir Waves Ship Positions

Scottish Viking

Last reported at 2014-Sep-20 23:13 UTC. Time now 2014-Oct-01 08:24 UTC.
Position N 58°15' E 019°03'.
Warning: this ship's position is 10 days out of date.

Length 186 m; draft 6.8 m.

Type: Ship. MMSI: 247265800.

Date/timePositionNaut miles runAvg speedWind from/ knotsBaromVisibWave heightAir tempDewpointWater temp
2014-Sep-20 23:13N 58°15' E 019°03'914.0
2014-Sep-20 22:33N 58°10' E 019°18'3313.3
2014-Sep-20 20:06N 57°40' E 019°43'1313.9
2014-Sep-20 19:09N 57°37' E 020°07'1114.0
2014-Sep-20 18:24N 57°35' E 020°26'40 2.3
2014-Sep-20 01:26N 58°04' E 019°37'6713.8
2014-Sep-19 20:33N 58°49' E 017°60'6 0.4
2014-Sep-19 05:32N 58°55' E 017°59'9 8.8
2014-Sep-19 04:33N 58°47' E 018°05'3213.5
2014-Sep-19 02:10N 58°24' E 018°49'911.8
2014-Sep-19 01:25N 58°16' E 018°56'7 7.9
2014-Sep-19 00:33N 58°12' E 019°05'1413.5
2014-Sep-18 23:33N 58°07' E 019°29'1513.1
2014-Sep-18 22:27N 57°53' E 019°35'1314.1
2014-Sep-18 21:32N 57°42' E 019°49'1312.7
2014-Sep-18 20:33N 57°36' E 020°10'1514.3
2014-Sep-18 19:30N 57°34' E 020°37'31 2.3
2014-Sep-18 06:12N 57°24' E 021°32'1521.0
2014-Sep-18 05:30N 57°34' E 021°10'2122.1
2014-Sep-18 04:33N 57°45' E 020°37'2222.2
2014-Sep-18 03:33N 57°57' E 020°03'1212.5
2014-Sep-18 02:33N 58°03' E 019°42'1413.7
2014-Sep-18 01:33N 58°10' E 019°19'14 0.5
2014-Sep-16 23:16N 58°03' E 019°43'16 0.8
2014-Sep-16 03:29N 58°11' E 019°16'1314.4
2014-Sep-16 02:33N 58°04' E 019°38'6214.2
2014-Sep-15 22:11N 57°31' E 021°17'6 1.0
2014-Sep-15 16:30N 57°34' E 021°08'2322.3
2014-Sep-15 15:29N 57°45' E 020°31'76 6.9
2014-Sep-15 04:30N 58°31' E 018°37'  
2014-Sep-12 05:04N 58°48' E 018°04'  
Track history (hours):
 
Tides and Currents Weather Stations Pressure Air Temp Water Temp Dewpoint Dewpoint Depression Visibility Wind Speed Wind Dir Waves Ship Positions

Scottish Viking

Last reported at 2014-Sep-20 23:13 UTC. Time now 2014-Oct-01 08:24 UTC.
Position N 58°15' E 019°03'.
Warning: this ship's position is 10 days out of date.

Length 186 m; draft 6.8 m.

Type: Ship. MMSI: 247265800.

Date/timePositionNaut miles runAvg speedWind from/ knotsBaromVisibWave heightAir tempDewpointWater temp
2014-Sep-20 23:13N 58°15' E 019°03'914.0
2014-Sep-20 22:33N 58°10' E 019°18'3313.3
2014-Sep-20 20:06N 57°40' E 019°43'1313.9
2014-Sep-20 19:09N 57°37' E 020°07'1114.0
2014-Sep-20 18:24N 57°35' E 020°26'40 2.3
2014-Sep-20 01:26N 58°04' E 019°37'6713.8
2014-Sep-19 20:33N 58°49' E 017°60'6 0.4
2014-Sep-19 05:32N 58°55' E 017°59'9 8.8
2014-Sep-19 04:33N 58°47' E 018°05'3213.5
2014-Sep-19 02:10N 58°24' E 018°49'911.8
2014-Sep-19 01:25N 58°16' E 018°56'7 7.9
2014-Sep-19 00:33N 58°12' E 019°05'1413.5
2014-Sep-18 23:33N 58°07' E 019°29'1513.1
2014-Sep-18 22:27N 57°53' E 019°35'1314.1
2014-Sep-18 21:32N 57°42' E 019°49'1312.7
2014-Sep-18 20:33N 57°36' E 020°10'1514.3
2014-Sep-18 19:30N 57°34' E 020°37'31 2.3
2014-Sep-18 06:12N 57°24' E 021°32'1521.0
2014-Sep-18 05:30N 57°34' E 021°10'2122.1
2014-Sep-18 04:33N 57°45' E 020°37'2222.2
2014-Sep-18 03:33N 57°57' E 020°03'1212.5
2014-Sep-18 02:33N 58°03' E 019°42'1413.7
2014-Sep-18 01:33N 58°10' E 019°19'14 0.5
2014-Sep-16 23:16N 58°03' E 019°43'16 0.8
2014-Sep-16 03:29N 58°11' E 019°16'1314.4
2014-Sep-16 02:33N 58°04' E 019°38'6214.2
2014-Sep-15 22:11N 57°31' E 021°17'6 1.0
2014-Sep-15 16:30N 57°34' E 021°08'2322.3
2014-Sep-15 15:29N 57°45' E 020°31'76 6.9
2014-Sep-15 04:30N 58°31' E 018°37'  
2014-Sep-12 05:04N 58°48' E 018°04'  

Dump ship's entire track history